createdAt,value
2023-02-18T00:00:03.856Z,98222.03
2023-02-18T00:03:12.830Z,98227.31
2023-02-18T00:06:20.181Z,98226.28
2023-02-18T00:09:25.927Z,98226.47
2023-02-18T00:12:32.872Z,98232.44
2023-02-18T00:15:39.824Z,98238.38
2023-02-18T00:18:48.837Z,98247.81
2023-02-18T00:21:54.076Z,98249.38
2023-02-18T00:24:59.176Z,98264.63
2023-02-18T00:28:04.576Z,98263.16
2023-02-18T00:31:13.953Z,98266.28
2023-02-18T00:34:19.324Z,98272.53
2023-02-18T00:37:24.605Z,98280.25
2023-02-18T00:40:29.798Z,98285.56
2023-02-18T00:43:35.101Z,98296.44
2023-02-18T00:46:42.565Z,98297.44
2023-02-18T00:49:47.799Z,98309.50
2023-02-18T00:52:53.022Z,98323.84
2023-02-18T00:55:58.269Z,98318.22
2023-02-18T00:59:03.665Z,98332.50
2023-02-18T01:02:13.278Z,98328.34
2023-02-18T01:05:18.412Z,98341.06
2023-02-18T01:08:24.339Z,98349.59
2023-02-18T01:11:29.515Z,98343.03
2023-02-18T01:14:34.710Z,98351.44
2023-02-18T01:17:41.491Z,98348.28
2023-02-18T01:20:48.159Z,98361.00
2023-02-18T01:23:54.808Z,98358.59
2023-02-18T01:27:00.038Z,98365.41
2023-02-18T01:30:07.616Z,98373.06
2023-02-18T01:33:15.663Z,98388.56
2023-02-18T01:36:22.168Z,98389.44
2023-02-18T01:39:27.515Z,98411.66
2023-02-18T01:42:32.860Z,98402.59
2023-02-18T01:45:58.429Z,98414.03
2023-02-18T01:49:05.023Z,98423.72
2023-02-18T01:52:16.241Z,98430.06
2023-02-18T01:55:21.470Z,98448.34
2023-02-18T01:58:26.856Z,98456.88
2023-02-18T02:01:33.253Z,98474.69
2023-02-18T02:04:41.578Z,98487.38
2023-02-18T02:07:49.155Z,98483.53
2023-02-18T02:11:08.742Z,98492.00
2023-02-18T02:14:42.403Z,98485.69
2023-02-18T02:17:54.058Z,98505.88
2023-02-18T02:21:36.496Z,98506.13
2023-02-18T02:25:04.557Z,98507.38
2023-02-18T02:28:41.793Z,98505.00
2023-02-18T02:32:18.415Z,98526.53
2023-02-18T02:35:27.419Z,98523.84
2023-02-18T02:38:36.382Z,98533.72
2023-02-18T02:41:48.393Z,98545.75
2023-02-18T02:44:56.438Z,98541.78
2023-02-18T02:48:05.282Z,98559.84
2023-02-18T02:51:17.699Z,98553.16
2023-02-18T02:54:25.818Z,98562.91
2023-02-18T02:57:48.091Z,98567.09
2023-02-18T03:01:15.635Z,98570.31
2023-02-18T03:04:43.186Z,98572.00
2023-02-18T03:08:10.908Z,98578.75
2023-02-18T03:11:17.643Z,98581.75
2023-02-18T03:14:29.646Z,98590.53
2023-02-18T03:17:38.939Z,98586.94
2023-02-18T03:20:48.113Z,98590.59
2023-02-18T03:23:57.914Z,98607.81
2023-02-18T03:27:09.917Z,98602.00
2023-02-18T03:30:19.259Z,98616.81
2023-02-18T03:33:28.682Z,98607.28
2023-02-18T03:36:34.870Z,98623.50
2023-02-18T03:39:44.972Z,98631.72
2023-02-18T03:42:52.113Z,98641.03
2023-02-18T03:45:57.352Z,98637.69
2023-02-18T03:49:02.859Z,98659.13
2023-02-18T03:52:08.863Z,98660.81
2023-02-18T03:55:15.757Z,98666.56
2023-02-18T03:58:20.584Z,98670.63
2023-02-18T04:01:25.959Z,98673.19
2023-02-18T04:04:31.005Z,98683.50
2023-02-18T04:07:36.615Z,98684.38
2023-02-18T04:10:43.092Z,98696.81
2023-02-18T04:13:48.941Z,98696.59
2023-02-18T04:16:54.192Z,98707.53
2023-02-18T04:19:59.535Z,98713.53
2023-02-18T04:23:05.913Z,98712.69
2023-02-18T04:26:14.482Z,98729.53
2023-02-18T04:29:19.743Z,98729.53
2023-02-18T04:32:24.705Z,98730.63
2023-02-18T04:35:29.789Z,98738.03
2023-02-18T04:38:34.907Z,98751.44
2023-02-18T04:41:41.420Z,98747.88
2023-02-18T04:44:47.615Z,98753.53
2023-02-18T04:47:52.629Z,98756.06
2023-02-18T04:50:58.826Z,98763.66
2023-02-18T04:54:04.817Z,98789.81
2023-02-18T04:57:11.642Z,98789.66
2023-02-18T05:00:19.289Z,98804.88
2023-02-18T05:03:24.529Z,98826.72
2023-02-18T05:06:29.681Z,98823.28
2023-02-18T05:09:34.919Z,98824.91
2023-02-18T05:12:41.467Z,98819.91
2023-02-18T05:15:47.280Z,98828.47
2023-02-18T05:18:52.550Z,98836.72
2023-02-18T05:21:57.931Z,98843.38
2023-02-18T05:25:02.859Z,98856.84
2023-02-18T05:28:09.619Z,98847.63
2023-02-18T05:31:15.131Z,98891.28
2023-02-18T05:34:20.481Z,98889.75
2023-02-18T05:37:25.598Z,98887.31
2023-02-18T05:40:31.179Z,98904.13
2023-02-18T05:43:57.827Z,98893.97
2023-02-18T05:47:04.182Z,98905.59
2023-02-18T05:50:11.118Z,98914.59
2023-02-18T05:53:17.686Z,98913.69
2023-02-18T05:56:22.885Z,98927.94
2023-02-18T05:59:30.331Z,98930.41
2023-02-18T06:02:35.474Z,98934.00
2023-02-18T06:05:40.359Z,98939.78
2023-02-18T06:08:45.545Z,98955.69
2023-02-18T06:11:50.724Z,98967.44
2023-02-18T06:14:57.728Z,98969.09
2023-02-18T06:18:03.055Z,98969.16
2023-02-18T06:21:08.467Z,98990.13
2023-02-18T06:24:13.708Z,98985.81
2023-02-18T06:27:18.901Z,98994.09
2023-02-18T06:30:25.559Z,99000.81
2023-02-18T06:33:30.888Z,98996.56
2023-02-18T06:36:36.314Z,99009.97
2023-02-18T06:39:41.241Z,99015.03
2023-02-18T06:42:46.577Z,99024.28
2023-02-18T06:45:53.703Z,99029.19
2023-02-18T06:48:59.232Z,99030.91
2023-02-18T06:52:04.449Z,99021.50
2023-02-18T06:55:10.653Z,99049.28
2023-02-18T06:58:16.468Z,99046.59
2023-02-18T07:01:23.224Z,99072.84
2023-02-18T07:04:28.026Z,99075.25
2023-02-18T07:07:33.415Z,99059.31
2023-02-18T07:10:39.771Z,99071.38
2023-02-18T07:13:45.467Z,99077.03
2023-02-18T07:16:51.655Z,99074.56
2023-02-18T07:19:56.980Z,99085.47
2023-02-18T07:23:02.341Z,99087.81
2023-02-18T07:26:10.412Z,99100.50
2023-02-18T07:29:15.621Z,99099.66
2023-02-18T07:32:22.534Z,99119.06
2023-02-18T07:35:27.672Z,99128.25
2023-02-18T07:38:33.241Z,99127.25
2023-02-18T07:41:38.454Z,99119.66
2023-02-18T07:44:51.977Z,99125.53
2023-02-18T07:47:58.586Z,99142.31
2023-02-18T07:51:06.934Z,99122.09
2023-02-18T07:54:12.457Z,99143.28
2023-02-18T07:57:17.676Z,99138.16
2023-02-18T08:00:22.706Z,99155.97
2023-02-18T08:03:31.071Z,99151.56
2023-02-18T08:06:38.106Z,99173.50
2023-02-18T08:09:44.157Z,99175.97
2023-02-18T08:12:49.479Z,99169.03
2023-02-18T08:15:57.006Z,99186.69
2023-02-18T08:19:04.546Z,99196.00
2023-02-18T08:22:10.574Z,99204.47
2023-02-18T08:25:28.974Z,99205.88
2023-02-18T08:28:35.094Z,99212.47
2023-02-18T08:31:40.091Z,99206.00
2023-02-18T08:34:46.995Z,99205.19
2023-02-18T08:37:54.450Z,99218.69
2023-02-18T08:41:04.662Z,99225.22
2023-02-18T08:44:11.236Z,99242.19
2023-02-18T08:48:17.980Z,99238.16
2023-02-18T08:50:44.315Z,99239.47
2023-02-18T08:53:50.412Z,99251.41
2023-02-18T08:56:57.863Z,99251.16
2023-02-18T09:00:03.073Z,99260.41
2023-02-18T09:03:08.548Z,99276.41
2023-02-18T09:06:15.260Z,99266.00
2023-02-18T09:09:20.844Z,99288.78
2023-02-18T09:12:25.735Z,99290.56
2023-02-18T09:15:32.405Z,99289.41
2023-02-18T09:18:37.634Z,99285.22
2023-02-18T09:21:44.336Z,99306.06
2023-02-18T09:24:49.201Z,99293.28
2023-02-18T09:27:54.407Z,99300.84
2023-02-18T09:31:00.511Z,99309.88
2023-02-18T09:34:05.769Z,99323.50
2023-02-18T09:37:13.490Z,99328.56
2023-02-18T09:40:27.257Z,99318.50
2023-02-18T09:43:35.296Z,99325.88
2023-02-18T09:46:42.753Z,99336.66
2023-02-18T09:49:50.619Z,99340.03
2023-02-18T09:53:00.207Z,99347.47
2023-02-18T09:56:07.664Z,99346.75
2023-02-18T09:59:17.362Z,99357.72
2023-02-18T10:02:30.746Z,99372.81
2023-02-18T10:05:37.346Z,99349.94
2023-02-18T10:08:47.281Z,99358.25
2023-02-18T10:12:04.296Z,99363.97
2023-02-18T10:15:12.442Z,99381.72
2023-02-18T10:18:25.825Z,99374.59
2023-02-18T10:21:35.172Z,99371.56
2023-02-18T10:24:44.336Z,99392.56
2023-02-18T10:27:51.105Z,99379.09
2023-02-18T10:31:01.394Z,99377.97
2023-02-18T10:34:13.404Z,99370.31
2023-02-18T10:37:32.145Z,99397.25
2023-02-18T10:40:48.993Z,99389.50
2023-02-18T10:43:58.233Z,99386.66
2023-02-18T10:47:09.094Z,99399.38
2023-02-18T10:50:21.199Z,99396.13
2023-02-18T10:53:33.986Z,99397.50
2023-02-18T10:56:43.692Z,99395.25
2023-02-18T10:59:58.536Z,99396.59
2023-02-18T11:03:11.831Z,99402.50
2023-02-18T11:06:23.366Z,99391.19
2023-02-18T11:09:33.307Z,99401.22
2023-02-18T11:12:46.820Z,99402.69
2023-02-18T11:16:04.353Z,99398.28
2023-02-18T11:19:33.716Z,99415.22
2023-02-18T11:22:41.223Z,99420.84
2023-02-18T11:25:57.587Z,99407.84
2023-02-18T11:29:06.916Z,99425.38
2023-02-18T11:32:14.593Z,99430.59
2023-02-18T11:35:21.478Z,99431.41
2023-02-18T11:38:30.554Z,99444.19
2023-02-18T11:41:38.704Z,99450.84
2023-02-18T11:44:51.404Z,99456.69
2023-02-18T11:48:02.383Z,99445.59
2023-02-18T11:51:08.275Z,99458.56
2023-02-18T11:54:27.863Z,99465.78
2023-02-18T11:57:33.774Z,99478.41
2023-02-18T12:00:43.625Z,99499.56
2023-02-18T12:03:53.993Z,99483.47
2023-02-18T12:07:07.642Z,99479.03
2023-02-18T12:10:17.323Z,99486.47
2023-02-18T12:13:27.224Z,99490.56
2023-02-18T12:16:40.892Z,99482.78
2023-02-18T12:19:58.152Z,99490.31
2023-02-18T12:23:10.410Z,99491.00
2023-02-18T12:26:26.151Z,99501.16
2023-02-18T12:30:04.961Z,99490.84
2023-02-18T12:33:21.233Z,99511.09
2023-02-18T12:36:34.778Z,99509.34
2023-02-18T12:39:53.326Z,99518.69
2023-02-18T12:43:04.165Z,99515.88
2023-02-18T12:46:25.525Z,99528.63
2023-02-18T12:50:00.591Z,99514.38
2023-02-18T12:53:28.595Z,99548.16
2023-02-18T12:56:58.448Z,99545.28
2023-02-18T13:00:33.149Z,99553.00
2023-02-18T13:03:55.476Z,99546.69
2023-02-18T13:07:16.842Z,99559.50
2023-02-18T13:10:40.671Z,99540.75
2023-02-18T13:13:50.656Z,99551.16
2023-02-18T13:16:58.764Z,99543.22
2023-02-18T13:20:07.629Z,99548.47
2023-02-18T13:23:20.211Z,99557.75
2023-02-18T13:26:26.265Z,99564.31
2023-02-18T13:29:34.595Z,99567.72
2023-02-18T13:32:44.262Z,99561.06
2023-02-18T13:35:55.792Z,99561.13
2023-02-18T13:39:06.461Z,99573.91
2023-02-18T13:42:28.923Z,99567.38
2023-02-18T13:45:34.868Z,99565.66
2023-02-18T13:48:46.428Z,99577.59
2023-02-18T13:51:52.620Z,99586.91
2023-02-18T13:54:59.855Z,99586.06
2023-02-18T13:58:04.944Z,99594.34
2023-02-18T14:01:23.807Z,99617.25
2023-02-18T14:04:54.440Z,99599.84
2023-02-18T14:08:13.142Z,99605.19
2023-02-18T14:11:42.699Z,99622.75
2023-02-18T14:14:48.446Z,99615.03
2023-02-18T14:18:10.652Z,99622.56
2023-02-18T14:21:44.104Z,99634.38
2023-02-18T14:24:54.851Z,99646.16
2023-02-18T14:28:05.369Z,99655.47
2023-02-18T14:31:30.466Z,99663.91
2023-02-18T14:35:03.912Z,99673.28
2023-02-18T14:38:28.192Z,99690.22
2023-02-18T14:41:54.863Z,99685.84
2023-02-18T14:45:10.834Z,99677.47
2023-02-18T14:48:42.937Z,99687.72
2023-02-18T14:51:49.152Z,99686.13
2023-02-18T14:54:55.313Z,99689.34
2023-02-18T14:58:04.446Z,99694.47
2023-02-18T15:01:20.806Z,99692.78
2023-02-18T15:04:26.901Z,99706.47
2023-02-18T15:07:34.104Z,99703.19
2023-02-18T15:10:42.105Z,99692.47
2023-02-18T15:13:48.470Z,99712.84
2023-02-18T15:16:55.727Z,99725.53
2023-02-18T15:20:06.640Z,99715.47
2023-02-18T15:23:15.234Z,99733.50
2023-02-18T15:26:21.349Z,99740.94
2023-02-18T15:29:27.573Z,99743.31
2023-02-18T15:32:35.272Z,99741.59
2023-02-18T15:35:43.530Z,99750.88
2023-02-18T15:38:49.209Z,99755.88
2023-02-18T15:41:55.979Z,99755.84
2023-02-18T15:45:06.066Z,99764.16
2023-02-18T15:48:24.638Z,99777.88
2023-02-18T15:51:32.148Z,99773.50
2023-02-18T15:54:41.362Z,99789.66
2023-02-18T15:57:46.835Z,99787.75
2023-02-18T16:00:53.873Z,99795.53
2023-02-18T16:04:01.407Z,99800.03
2023-02-18T16:07:25.224Z,99799.09
2023-02-18T16:10:46.379Z,99826.28
2023-02-18T16:13:51.535Z,99821.31
2023-02-18T16:17:15.982Z,99824.63
2023-02-18T16:20:32.151Z,99825.75
2023-02-18T16:23:42.424Z,99833.72
2023-02-18T16:26:48.941Z,99833.91
2023-02-18T16:29:54.161Z,99833.78
2023-02-18T16:33:00.689Z,99835.63
2023-02-18T16:36:07.653Z,99842.63
2023-02-18T16:39:15.107Z,99834.34
2023-02-18T16:42:20.508Z,99853.72
2023-02-18T16:45:33.561Z,99852.06
2023-02-18T16:48:40.986Z,99844.59
2023-02-18T16:51:47.714Z,99861.50
2023-02-18T16:54:54.511Z,99868.28
2023-02-18T16:57:59.756Z,99878.25
2023-02-18T17:01:04.776Z,99891.84
2023-02-18T17:04:12.944Z,99897.56
2023-02-18T17:07:19.479Z,99907.81
2023-02-18T17:10:24.306Z,99909.34
2023-02-18T17:13:31.667Z,99918.63
2023-02-18T17:16:36.974Z,99928.91
2023-02-18T17:19:42.650Z,99918.91
2023-02-18T17:22:49.493Z,99923.94
2023-02-18T17:25:56.820Z,99928.09
2023-02-18T17:29:02.480Z,99933.19
2023-02-18T17:32:09.012Z,99946.88
2023-02-18T17:35:22.886Z,99951.03
2023-02-18T17:38:29.570Z,99947.69
2023-02-18T17:41:34.722Z,99954.47
2023-02-18T17:44:40.119Z,99958.88
2023-02-18T17:47:45.226Z,99964.13
2023-02-18T17:50:50.641Z,99954.72
2023-02-18T17:53:58.651Z,99973.38
2023-02-18T17:57:04.105Z,99985.22
2023-02-18T18:00:10.079Z,99985.97
2023-02-18T18:03:19.785Z,99986.19
2023-02-18T18:06:25.018Z,99989.53
2023-02-18T18:09:33.670Z,99995.41
2023-02-18T18:12:39.589Z,99993.75
2023-02-18T18:15:45.760Z,100003.88
2023-02-18T18:18:51.173Z,99997.13
2023-02-18T18:21:56.618Z,100008.91
2023-02-18T18:25:04.772Z,100006.50
2023-02-18T18:28:10.422Z,100012.44
2023-02-18T18:31:19.233Z,100017.50
2023-02-18T18:34:24.367Z,100023.47
2023-02-18T18:37:29.529Z,100012.59
2023-02-18T18:40:37.578Z,100033.59
2023-02-18T18:43:45.378Z,100029.38
2023-02-18T18:46:50.283Z,100042.84
2023-02-18T18:49:55.746Z,100039.47
2023-02-18T18:53:01.342Z,100042.84
2023-02-18T18:56:09.448Z,100036.97
2023-02-18T18:59:14.553Z,100050.41
2023-02-18T19:02:20.406Z,100053.81
2023-02-18T19:05:29.835Z,100053.94
2023-02-18T19:08:35.107Z,100063.06
2023-02-18T19:11:42.814Z,100060.63
2023-02-18T19:14:47.602Z,100059.81
2023-02-18T19:17:54.999Z,100053.91
2023-02-18T19:21:01.872Z,100075.84
2023-02-18T19:24:08.358Z,100075.00
2023-02-18T19:27:17.483Z,100079.22
2023-02-18T19:30:24.334Z,100087.56
2023-02-18T19:33:31.173Z,100085.06
2023-02-18T19:36:36.290Z,100088.50
2023-02-18T19:39:41.322Z,100082.63
2023-02-18T19:42:48.792Z,100095.25
2023-02-18T19:45:54.186Z,100101.97
2023-02-18T19:48:59.420Z,100093.63
2023-02-18T19:52:05.520Z,100100.38
2023-02-18T19:55:11.772Z,100097.88
2023-02-18T19:58:18.982Z,100107.06
2023-02-18T20:01:24.577Z,100106.25
2023-02-18T20:04:31.326Z,100123.06
2023-02-18T20:07:37.455Z,100125.59
2023-02-18T20:10:49.757Z,100121.38
2023-02-18T20:13:56.922Z,100124.78
2023-02-18T20:17:02.051Z,100131.53
2023-02-18T20:20:10.141Z,100138.25
2023-02-18T20:23:15.679Z,100137.47
2023-02-18T20:26:20.611Z,100144.13
2023-02-18T20:29:28.715Z,100137.47
2023-02-18T20:32:36.512Z,100136.63
2023-02-18T20:35:41.728Z,100132.47
2023-02-18T20:38:47.101Z,100129.09
2023-02-18T20:41:56.803Z,100134.97
2023-02-18T20:45:04.745Z,100140.06
2023-02-18T20:48:13.261Z,100143.41
2023-02-18T20:51:20.632Z,100145.88
2023-02-18T20:54:25.890Z,100150.13
2023-02-18T20:57:33.821Z,100156.84
2023-02-18T21:00:42.916Z,100159.38
2023-02-18T21:03:52.147Z,100163.56
2023-02-18T21:06:57.256Z,100174.47
2023-02-18T21:10:06.684Z,100162.78
2023-02-18T21:13:14.464Z,100174.47
2023-02-18T21:16:22.765Z,100176.16
2023-02-18T21:19:28.848Z,100172.00
2023-02-18T21:22:35.289Z,100175.38
2023-02-18T21:25:42.022Z,100170.31
2023-02-18T21:28:49.205Z,100158.56
2023-02-18T21:31:56.180Z,100174.53
2023-02-18T21:35:01.492Z,100177.88
2023-02-18T21:38:07.327Z,100181.28
2023-02-18T21:41:14.845Z,100190.50
2023-02-18T21:44:25.039Z,100180.44
2023-02-18T21:47:37.902Z,100183.78
2023-02-18T21:50:43.075Z,100195.53
2023-02-18T21:53:49.488Z,100194.69
2023-02-18T21:56:56.816Z,100206.44
2023-02-18T22:00:14.571Z,100204.75
2023-02-18T22:03:24.969Z,100207.28
2023-02-18T22:06:30.346Z,100215.69
2023-02-18T22:09:35.200Z,100217.34
2023-02-18T22:12:41.048Z,100224.06
2023-02-18T22:15:47.466Z,100224.91
2023-02-18T22:18:55.081Z,100226.59
2023-02-18T22:22:00.576Z,100225.72
2023-02-18T22:25:06.130Z,100227.44
2023-02-18T22:28:13.604Z,100214.84
2023-02-18T22:31:18.971Z,100240.00
2023-02-18T22:34:26.056Z,100240.81
2023-02-18T22:37:31.869Z,100233.28
2023-02-18T22:40:36.783Z,100239.97
2023-02-18T22:43:42.054Z,100243.34
2023-02-18T22:46:47.249Z,100243.34
2023-02-18T22:49:53.716Z,100236.63
2023-02-18T22:52:58.864Z,100237.47
2023-02-18T22:56:05.167Z,100245.03
2023-02-18T22:59:12.562Z,100234.94
2023-02-18T23:02:19.930Z,100234.94
2023-02-18T23:05:26.877Z,100239.16
2023-02-18T23:08:32.695Z,100239.97
2023-02-18T23:11:38.116Z,100247.53
2023-02-18T23:14:43.795Z,100240.84
2023-02-18T23:17:53.486Z,100240.84
2023-02-18T23:21:21.409Z,100246.69
2023-02-18T23:24:26.959Z,100241.63
2023-02-18T23:27:32.585Z,100249.19
2023-02-18T23:30:37.922Z,100243.34
2023-02-18T23:33:43.282Z,100244.16
2023-02-18T23:36:49.880Z,100249.19
2023-02-18T23:39:55.158Z,100250.03
2023-02-18T23:43:00.128Z,100256.75
2023-02-18T23:46:07.626Z,100260.06
2023-02-18T23:49:16.350Z,100257.53
2023-02-18T23:52:22.871Z,100257.53
2023-02-18T23:55:28.120Z,100261.75
2023-02-18T23:58:33.766Z,100260.91
